Aérodrome :
LOGIN :

S'inscrire | Disclaimer

   EN    FR    IT 

 










Légende :    VFR   VFR Marginal   IFR   IFR Intensif   IFR Très Intensif
Visi : 
Plafond : 
>= 8 km
>= 3000ft
5 à 8 km
1000 à 3000 ft
1500m à 5 km
500 à 1000 ft
800 à 1500m
200 à 500 ft
< 800m
< 200 ft
Symboles :   Orages  Brouillard  Fortes neiges  Fortes précipitations  Vent > 20 kt
SIGMETs :   Divers  Orages  Givrage  Turbulence  Onde Orograph.  Cendres Volcan.







- Altitude de l'aérodrome : 277 ft
- Code IATA : JER
- Voir les cartes d'approche


EGJJ - Jersey

DERNIER METAR :
  • 151150Z 14014KT 0350 R08/0550 FG BKN000 OVC001 11/11 Q1019

METARs EXPIRÉS :
  • 151120Z 14014KT 0100 R08/0175 FG BKN000 OVC001 11/11 Q1019
  • 151050Z 14012KT 0100 R08/0125 FG BKN000 OVC001 11/11 Q1019
  • 151020Z 14014KT 0100 R08/0100 FG BKN000 OVC001 11/11 Q1019
  • 150950Z 14014KT 0100 R08/0125 FG BKN000 OVC001 11/11 Q1019
  • 150920Z 13014KT 0100 R08/0125 FG BKN000 OVC001 11/11 Q1019

TAF TAF EGJJ
Valide du 15 à 12h jusqu'au 15 à 21h UTC


151103Z 1512/1521 15010KT 0200 FG BKN000
BECMG 1512/1513 3000 BR BKN003
BECMG 1513/1515 6000 NSW BKN008
TEMPO 1514/1517 9999 SCT010
PROB40
TEMPO 1518/1521 3000 BR BKN005
ATIS : +44 1534 498 073
Pas de NOTAMs connus pour ce terrain.



MET'MAP, la Météo Aéronautique d'un coup d'oeil ! - Copyright ORBIFLY Décembre 2007 - Disclaimer

ORBIFLY MET'MAP TEAM :

Programmation & Développement : Alexandra Zaïnal
Conception & Développement : Baudouin d'Aumeries
Co-Programmation & Développement : Marc-Olivier Méhu
Soutien technique & logistique : Manuel Goepfert

Contact : metmap@orbifly.com




SOURCES & CREDITS :

   NOAA